Afonso Pena International Airport

Airport
ICAO code: 
SBCT
IATA Code: 
CWB
Summary
ICAO Region: 
CARSAM
Territory: 
Location: 
São José dos Pinhais, Parana
Serving: 
Curitiba
Elevation: 
2988 ft
Coordinates: 
Aerial View: 
25° 31' 51.996" S, 49° 10' 32.016" W
Metar
Observation
SBCT 270900Z VRB02KT CAVOK 17/15 Q1009
Station
Curitiba Aeroporto
Date/Time
2021-11-27 09:00:00
Wind speed
02 kts
Lowest cloud amount
clouds and visibility OK
Temperature
17°C
Dew point
15°C
Humidity
88%
QNH
1009 hPa
Weather condition
n/a

Afonso Pena International Airport is the main airport serving Curitiba, Brazil, located in the adjoining municipality of São José dos Pinhais.

Climatology

Subtropical highland/oceanic climate (Köppen climate classification Cfb)

Runways

Designator Length Width Surface Rops
11/29 1800 45 ASP Yes/Yes
15/33 2215 45 ASP Yes/Yes
Airport map: 
Aerial View: 

SKYbrary Partners:

Safety knowledge contributed by: